sensor_id;sensor_type;location;lat;lon;timestamp;P1;durP1;ratioP1;P2;durP2;ratioP2
40849;SDS011;26571;41.610;25.380;2023-02-13T00:01:58;12.68;;;11.00;;
40849;SDS011;26571;41.610;25.380;2023-02-13T00:04:24;17.70;;;11.82;;
40849;SDS011;26571;41.610;25.380;2023-02-13T00:06:49;17.65;;;12.48;;
40849;SDS011;26571;41.610;25.380;2023-02-13T00:09:15;15.40;;;11.50;;
40849;SDS011;26571;41.610;25.380;2023-02-13T00:11:40;20.25;;;14.30;;
40849;SDS011;26571;41.610;25.380;2023-02-13T00:14:06;45.80;;;26.73;;
40849;SDS011;26571;41.610;25.380;2023-02-13T00:16:31;53.65;;;29.88;;
40849;SDS011;26571;41.610;25.380;2023-02-13T00:18:57;79.47;;;44.13;;
40849;SDS011;26571;41.610;25.380;2023-02-13T00:21:22;75.95;;;41.00;;
40849;SDS011;26571;41.610;25.380;2023-02-13T00:23:48;54.75;;;31.77;;
40849;SDS011;26571;41.610;25.380;2023-02-13T00:26:14;51.10;;;28.48;;
40849;SDS011;26571;41.610;25.380;2023-02-13T00:28:41;44.10;;;26.27;;
40849;SDS011;26571;41.610;25.380;2023-02-13T00:31:08;44.85;;;25.50;;
40849;SDS011;26571;41.610;25.380;2023-02-13T00:33:35;38.88;;;24.30;;
40849;SDS011;26571;41.610;25.380;2023-02-13T00:36:02;39.85;;;23.40;;
40849;SDS011;26571;41.610;25.380;2023-02-13T00:38:29;44.83;;;25.52;;
40849;SDS011;26571;41.610;25.380;2023-02-13T00:40:55;37.83;;;23.08;;
40849;SDS011;26571;41.610;25.380;2023-02-13T00:43:20;34.72;;;21.30;;
40849;SDS011;26571;41.610;25.380;2023-02-13T00:45:46;35.65;;;21.40;;
40849;SDS011;26571;41.610;25.380;2023-02-13T00:48:11;29.70;;;17.70;;
40849;SDS011;26571;41.610;25.380;2023-02-13T00:50:36;27.05;;;16.95;;
40849;SDS011;26571;41.610;25.380;2023-02-13T00:53:02;24.40;;;16.17;;
40849;SDS011;26571;41.610;25.380;2023-02-13T00:55:27;20.55;;;14.20;;
40849;SDS011;26571;41.610;25.380;2023-02-13T00:57:53;23.10;;;16.20;;
40849;SDS011;26571;41.610;25.380;2023-02-13T01:00:18;21.67;;;15.50;;
40849;SDS011;26571;41.610;25.380;2023-02-13T01:02:44;25.35;;;16.88;;
40849;SDS011;26571;41.610;25.380;2023-02-13T01:05:09;24.45;;;16.27;;
40849;SDS011;26571;41.610;25.380;2023-02-13T01:07:35;20.73;;;15.02;;
40849;SDS011;26571;41.610;25.380;2023-02-13T01:10:00;17.88;;;13.93;;
40849;SDS011;26571;41.610;25.380;2023-02-13T01:12:25;17.42;;;12.93;;
40849;SDS011;26571;41.610;25.380;2023-02-13T01:14:51;18.63;;;13.20;;
40849;SDS011;26571;41.610;25.380;2023-02-13T01:17:16;16.40;;;13.43;;
40849;SDS011;26571;41.610;25.380;2023-02-13T01:19:42;14.10;;;12.38;;
40849;SDS011;26571;41.610;25.380;2023-02-13T01:22:07;15.02;;;12.75;;
40849;SDS011;26571;41.610;25.380;2023-02-13T01:24:33;17.77;;;12.77;;
40849;SDS011;26571;41.610;25.380;2023-02-13T01:26:59;15.73;;;12.80;;
40849;SDS011;26571;41.610;25.380;2023-02-13T01:29:26;15.23;;;12.43;;
40849;SDS011;26571;41.610;25.380;2023-02-13T01:31:52;13.90;;;11.40;;
40849;SDS011;26571;41.610;25.380;2023-02-13T01:34:17;15.02;;;11.65;;
40849;SDS011;26571;41.610;25.380;2023-02-13T01:36:43;18.15;;;12.10;;
40849;SDS011;26571;41.610;25.380;2023-02-13T01:39:09;14.40;;;12.55;;
40849;SDS011;26571;41.610;25.380;2023-02-13T01:44:01;16.08;;;11.52;;
40849;SDS011;26571;41.610;25.380;2023-02-13T01:46:31;13.85;;;10.85;;
40849;SDS011;26571;41.610;25.380;2023-02-13T01:49:08;15.05;;;11.25;;
40849;SDS011;26571;41.610;25.380;2023-02-13T01:51:35;13.93;;;11.45;;
40849;SDS011;26571;41.610;25.380;2023-02-13T01:54:02;14.80;;;11.50;;
40849;SDS011;26571;41.610;25.380;2023-02-13T01:56:32;15.18;;;12.05;;
40849;SDS011;26571;41.610;25.380;2023-02-13T01:59:03;15.90;;;11.45;;
40849;SDS011;26571;41.610;25.380;2023-02-13T02:01:32;14.63;;;11.00;;
40849;SDS011;26571;41.610;25.380;2023-02-13T02:06:50;15.73;;;11.30;;
40849;SDS011;26571;41.610;25.380;2023-02-13T02:09:22;16.85;;;11.93;;
40849;SDS011;26571;41.610;25.380;2023-02-13T02:12:01;21.85;;;14.27;;
40849;SDS011;26571;41.610;25.380;2023-02-13T02:14:32;14.60;;;11.60;;
40849;SDS011;26571;41.610;25.380;2023-02-13T02:16:58;16.80;;;13.00;;
40849;SDS011;26571;41.610;25.380;2023-02-13T02:27:37;39.28;;;13.23;;
40849;SDS011;26571;41.610;25.380;2023-02-13T02:38:16;16.13;;;12.45;;
40849;SDS011;26571;41.610;25.380;2023-02-13T02:40:56;16.73;;;13.00;;
40849;SDS011;26571;41.610;25.380;2023-02-13T02:43:41;17.15;;;13.13;;
40849;SDS011;26571;41.610;25.380;2023-02-13T02:46:30;19.02;;;15.88;;
40849;SDS011;26571;41.610;25.380;2023-02-13T02:49:11;20.15;;;14.50;;
40849;SDS011;26571;41.610;25.380;2023-02-13T02:54:30;20.02;;;12.00;;
40849;SDS011;26571;41.610;25.380;2023-02-13T02:57:24;17.08;;;12.85;;
40849;SDS011;26571;41.610;25.380;2023-02-13T03:00:15;15.93;;;12.80;;
40849;SDS011;26571;41.610;25.380;2023-02-13T03:03:02;17.35;;;12.63;;
40849;SDS011;26571;41.610;25.380;2023-02-13T03:05:49;14.60;;;12.30;;
40849;SDS011;26571;41.610;25.380;2023-02-13T03:08:34;17.98;;;13.00;;
40849;SDS011;26571;41.610;25.380;2023-02-13T03:11:19;16.85;;;12.70;;
40849;SDS011;26571;41.610;25.380;2023-02-13T03:14:04;18.00;;;13.18;;
40849;SDS011;26571;41.610;25.380;2023-02-13T03:16:33;15.25;;;11.63;;
40849;SDS011;26571;41.610;25.380;2023-02-13T03:22:38;18.20;;;12.60;;
40849;SDS011;26571;41.610;25.380;2023-02-13T03:28:16;25.40;;;14.93;;
40849;SDS011;26571;41.610;25.380;2023-02-13T03:31:25;26.52;;;17.88;;
40849;SDS011;26571;41.610;25.380;2023-02-13T03:39:30;19.40;;;13.93;;
40849;SDS011;26571;41.610;25.380;2023-02-13T03:42:10;19.23;;;13.88;;
40849;SDS011;26571;41.610;25.380;2023-02-13T03:44:52;23.20;;;15.02;;
40849;SDS011;26571;41.610;25.380;2023-02-13T03:47:40;22.48;;;16.42;;
40849;SDS011;26571;41.610;25.380;2023-02-13T03:50:08;22.88;;;15.93;;
40849;SDS011;26571;41.610;25.380;2023-02-13T03:52:57;29.08;;;16.95;;
40849;SDS011;26571;41.610;25.380;2023-02-13T03:55:29;25.20;;;15.27;;
40849;SDS011;26571;41.610;25.380;2023-02-13T03:58:22;25.25;;;17.23;;
40849;SDS011;26571;41.610;25.380;2023-02-13T04:01:11;28.30;;;18.92;;
40849;SDS011;26571;41.610;25.380;2023-02-13T04:06:21;40.10;;;26.75;;
40849;SDS011;26571;41.610;25.380;2023-02-13T04:08:51;34.47;;;23.40;;
40849;SDS011;26571;41.610;25.380;2023-02-13T04:11:24;37.10;;;24.55;;
40849;SDS011;26571;41.610;25.380;2023-02-13T04:13:58;38.70;;;23.88;;
40849;SDS011;26571;41.610;25.380;2023-02-13T04:16:30;33.10;;;22.52;;
40849;SDS011;26571;41.610;25.380;2023-02-13T04:18:59;33.08;;;21.42;;
40849;SDS011;26571;41.610;25.380;2023-02-13T04:21:26;33.00;;;21.77;;
40849;SDS011;26571;41.610;25.380;2023-02-13T04:23:52;31.92;;;21.70;;
40849;SDS011;26571;41.610;25.380;2023-02-13T04:26:18;33.88;;;24.05;;
40849;SDS011;26571;41.610;25.380;2023-02-13T04:28:45;31.20;;;23.13;;
40849;SDS011;26571;41.610;25.380;2023-02-13T04:31:11;30.08;;;18.55;;
40849;SDS011;26571;41.610;25.380;2023-02-13T04:33:36;30.45;;;19.48;;
40849;SDS011;26571;41.610;25.380;2023-02-13T04:36:02;29.27;;;21.00;;
40849;SDS011;26571;41.610;25.380;2023-02-13T04:38:27;27.92;;;19.52;;
40849;SDS011;26571;41.610;25.380;2023-02-13T04:40:53;24.40;;;18.50;;
40849;SDS011;26571;41.610;25.380;2023-02-13T04:43:18;25.42;;;17.55;;
40849;SDS011;26571;41.610;25.380;2023-02-13T04:45:46;31.42;;;20.05;;
40849;SDS011;26571;41.610;25.380;2023-02-13T04:48:13;27.92;;;19.52;;
40849;SDS011;26571;41.610;25.380;2023-02-13T04:50:38;21.35;;;15.77;;
40849;SDS011;26571;41.610;25.380;2023-02-13T04:53:03;20.13;;;15.07;;
40849;SDS011;26571;41.610;25.380;2023-02-13T04:55:29;23.65;;;14.75;;
40849;SDS011;26571;41.610;25.380;2023-02-13T04:57:54;19.45;;;13.88;;
40849;SDS011;26571;41.610;25.380;2023-02-13T05:00:21;22.23;;;15.98;;
40849;SDS011;26571;41.610;25.380;2023-02-13T05:02:48;18.85;;;14.48;;
40849;SDS011;26571;41.610;25.380;2023-02-13T05:05:14;20.30;;;14.40;;
40849;SDS011;26571;41.610;25.380;2023-02-13T05:07:40;18.20;;;14.68;;
40849;SDS011;26571;41.610;25.380;2023-02-13T05:10:06;19.95;;;14.63;;
40849;SDS011;26571;41.610;25.380;2023-02-13T05:12:32;19.73;;;14.00;;
40849;SDS011;26571;41.610;25.380;2023-02-13T05:14:58;14.07;;;11.48;;
40849;SDS011;26571;41.610;25.380;2023-02-13T05:17:23;21.30;;;14.57;;
40849;SDS011;26571;41.610;25.380;2023-02-13T05:19:48;21.17;;;15.05;;
40849;SDS011;26571;41.610;25.380;2023-02-13T05:22:14;16.77;;;11.50;;
40849;SDS011;26571;41.610;25.380;2023-02-13T05:24:57;21.42;;;13.32;;
40849;SDS011;26571;41.610;25.380;2023-02-13T05:27:23;17.65;;;14.05;;
40849;SDS011;26571;41.610;25.380;2023-02-13T05:29:48;18.40;;;14.13;;
40849;SDS011;26571;41.610;25.380;2023-02-13T05:32:14;19.10;;;12.80;;
40849;SDS011;26571;41.610;25.380;2023-02-13T05:34:39;21.05;;;13.55;;
40849;SDS011;26571;41.610;25.380;2023-02-13T05:37:04;20.70;;;16.42;;
40849;SDS011;26571;41.610;25.380;2023-02-13T05:39:30;22.95;;;17.55;;
40849;SDS011;26571;41.610;25.380;2023-02-13T05:41:55;29.17;;;26.10;;
40849;SDS011;26571;41.610;25.380;2023-02-13T05:44:21;25.38;;;20.92;;
40849;SDS011;26571;41.610;25.380;2023-02-13T05:46:46;21.92;;;17.02;;
40849;SDS011;26571;41.610;25.380;2023-02-13T05:49:12;15.23;;;12.60;;
40849;SDS011;26571;41.610;25.380;2023-02-13T05:51:39;14.07;;;11.68;;
40849;SDS011;26571;41.610;25.380;2023-02-13T05:54:04;15.52;;;12.85;;
40849;SDS011;26571;41.610;25.380;2023-02-13T05:56:30;15.73;;;11.55;;
40849;SDS011;26571;41.610;25.380;2023-02-13T05:58:55;16.48;;;12.63;;
40849;SDS011;26571;41.610;25.380;2023-02-13T06:01:22;15.07;;;11.18;;
40849;SDS011;26571;41.610;25.380;2023-02-13T06:03:48;14.55;;;11.20;;
40849;SDS011;26571;41.610;25.380;2023-02-13T06:06:14;20.25;;;12.98;;
40849;SDS011;26571;41.610;25.380;2023-02-13T06:08:40;16.45;;;11.98;;
40849;SDS011;26571;41.610;25.380;2023-02-13T06:11:05;21.05;;;14.23;;
40849;SDS011;26571;41.610;25.380;2023-02-13T06:13:30;14.80;;;11.43;;
40849;SDS011;26571;41.610;25.380;2023-02-13T06:15:56;18.80;;;13.95;;
40849;SDS011;26571;41.610;25.380;2023-02-13T06:18:21;19.08;;;15.25;;
40849;SDS011;26571;41.610;25.380;2023-02-13T06:20:47;17.92;;;12.70;;
40849;SDS011;26571;41.610;25.380;2023-02-13T06:23:12;26.17;;;19.70;;
40849;SDS011;26571;41.610;25.380;2023-02-13T06:25:38;36.08;;;28.88;;
40849;SDS011;26571;41.610;25.380;2023-02-13T06:28:04;27.70;;;23.05;;
40849;SDS011;26571;41.610;25.380;2023-02-13T06:30:30;16.48;;;12.35;;
40849;SDS011;26571;41.610;25.380;2023-02-13T06:32:55;46.65;;;39.40;;
40849;SDS011;26571;41.610;25.380;2023-02-13T06:35:21;30.25;;;27.00;;
40849;SDS011;26571;41.610;25.380;2023-02-13T06:37:46;23.02;;;19.50;;
40849;SDS011;26571;41.610;25.380;2023-02-13T06:40:13;22.42;;;19.42;;
40849;SDS011;26571;41.610;25.380;2023-02-13T06:42:40;20.98;;;18.65;;
40849;SDS011;26571;41.610;25.380;2023-02-13T06:45:06;21.85;;;18.13;;
40849;SDS011;26571;41.610;25.380;2023-02-13T06:47:32;27.08;;;20.13;;
40849;SDS011;26571;41.610;25.380;2023-02-13T06:49:58;28.92;;;23.42;;
40849;SDS011;26571;41.610;25.380;2023-02-13T06:52:23;27.52;;;23.05;;
40849;SDS011;26571;41.610;25.380;2023-02-13T06:54:48;22.92;;;18.80;;
40849;SDS011;26571;41.610;25.380;2023-02-13T06:57:14;28.98;;;21.25;;
40849;SDS011;26571;41.610;25.380;2023-02-13T06:59:40;23.23;;;19.42;;
40849;SDS011;26571;41.610;25.380;2023-02-13T07:02:07;23.50;;;20.30;;
40849;SDS011;26571;41.610;25.380;2023-02-13T07:04:34;33.65;;;23.48;;
40849;SDS011;26571;41.610;25.380;2023-02-13T07:06:59;30.83;;;23.70;;
40849;SDS011;26571;41.610;25.380;2023-02-13T07:09:25;24.20;;;19.05;;
40849;SDS011;26571;41.610;25.380;2023-02-13T07:11:50;13.77;;;11.98;;
40849;SDS011;26571;41.610;25.380;2023-02-13T07:14:16;16.08;;;13.60;;
40849;SDS011;26571;41.610;25.380;2023-02-13T07:16:41;16.27;;;12.73;;
40849;SDS011;26571;41.610;25.380;2023-02-13T07:19:07;19.10;;;15.02;;
40849;SDS011;26571;41.610;25.380;2023-02-13T07:21:32;21.08;;;16.40;;
40849;SDS011;26571;41.610;25.380;2023-02-13T07:23:58;23.40;;;20.35;;
40849;SDS011;26571;41.610;25.380;2023-02-13T07:26:23;20.30;;;16.02;;
40849;SDS011;26571;41.610;25.380;2023-02-13T07:28:50;17.45;;;15.38;;
40849;SDS011;26571;41.610;25.380;2023-02-13T07:31:16;21.38;;;15.48;;
40849;SDS011;26571;41.610;25.380;2023-02-13T07:33:41;15.98;;;14.30;;
40849;SDS011;26571;41.610;25.380;2023-02-13T07:36:07;16.15;;;14.02;;
40849;SDS011;26571;41.610;25.380;2023-02-13T07:38:32;18.63;;;16.05;;
40849;SDS011;26571;41.610;25.380;2023-02-13T07:40:58;16.17;;;14.50;;
40849;SDS011;26571;41.610;25.380;2023-02-13T07:43:25;16.30;;;14.48;;
40849;SDS011;26571;41.610;25.380;2023-02-13T07:45:50;17.00;;;15.23;;
40849;SDS011;26571;41.610;25.380;2023-02-13T07:48:22;15.90;;;13.60;;
40849;SDS011;26571;41.610;25.380;2023-02-13T07:50:48;15.32;;;13.73;;
40849;SDS011;26571;41.610;25.380;2023-02-13T07:53:14;14.93;;;13.43;;
40849;SDS011;26571;41.610;25.380;2023-02-13T07:55:40;13.45;;;12.02;;
40849;SDS011;26571;41.610;25.380;2023-02-13T07:58:05;13.50;;;12.20;;
40849;SDS011;26571;41.610;25.380;2023-02-13T08:00:31;13.90;;;11.85;;
40849;SDS011;26571;41.610;25.380;2023-02-13T08:03:00;18.90;;;16.05;;
40849;SDS011;26571;41.610;25.380;2023-02-13T08:05:26;14.43;;;11.60;;
40849;SDS011;26571;41.610;25.380;2023-02-13T08:07:52;15.37;;;13.40;;
40849;SDS011;26571;41.610;25.380;2023-02-13T08:10:18;14.35;;;12.93;;
40849;SDS011;26571;41.610;25.380;2023-02-13T08:13:02;7.95;;;7.15;;
40849;SDS011;26571;41.610;25.380;2023-02-13T08:15:28;8.85;;;8.02;;
40849;SDS011;26571;41.610;25.380;2023-02-13T08:17:53;8.93;;;7.13;;
40849;SDS011;26571;41.610;25.380;2023-02-13T08:20:19;6.82;;;6.13;;
40849;SDS011;26571;41.610;25.380;2023-02-13T08:22:44;7.72;;;6.95;;
40849;SDS011;26571;41.610;25.380;2023-02-13T08:25:09;9.15;;;7.07;;
40849;SDS011;26571;41.610;25.380;2023-02-13T08:27:35;7.80;;;6.95;;
40849;SDS011;26571;41.610;25.380;2023-02-13T08:30:00;7.80;;;6.22;;
40849;SDS011;26571;41.610;25.380;2023-02-13T08:32:27;8.23;;;6.70;;
40849;SDS011;26571;41.610;25.380;2023-02-13T08:34:52;11.82;;;10.73;;
40849;SDS011;26571;41.610;25.380;2023-02-13T08:37:18;13.85;;;7.57;;
40849;SDS011;26571;41.610;25.380;2023-02-13T08:39:43;9.55;;;6.75;;
40849;SDS011;26571;41.610;25.380;2023-02-13T08:42:09;9.18;;;5.43;;
40849;SDS011;26571;41.610;25.380;2023-02-13T08:44:34;5.78;;;5.15;;
40849;SDS011;26571;41.610;25.380;2023-02-13T08:47:01;7.75;;;6.82;;
40849;SDS011;26571;41.610;25.380;2023-02-13T08:49:30;6.93;;;4.72;;
40849;SDS011;26571;41.610;25.380;2023-02-13T08:51:56;11.15;;;10.00;;
40849;SDS011;26571;41.610;25.380;2023-02-13T08:54:21;7.90;;;6.80;;
40849;SDS011;26571;41.610;25.380;2023-02-13T08:56:47;8.50;;;6.50;;
40849;SDS011;26571;41.610;25.380;2023-02-13T08:59:12;8.23;;;6.18;;
40849;SDS011;26571;41.610;25.380;2023-02-13T09:01:38;6.75;;;5.97;;
40849;SDS011;26571;41.610;25.380;2023-02-13T09:04:03;12.00;;;6.07;;
40849;SDS011;26571;41.610;25.380;2023-02-13T09:06:29;10.90;;;8.13;;
40849;SDS011;26571;41.610;25.380;2023-02-13T09:08:54;10.13;;;6.03;;
40849;SDS011;26571;41.610;25.380;2023-02-13T09:11:19;12.90;;;7.47;;
40849;SDS011;26571;41.610;25.380;2023-02-13T09:16:13;7.95;;;6.05;;
40849;SDS011;26571;41.610;25.380;2023-02-13T09:18:38;6.93;;;5.32;;
40849;SDS011;26571;41.610;25.380;2023-02-13T09:21:04;6.63;;;5.32;;
40849;SDS011;26571;41.610;25.380;2023-02-13T09:23:32;10.82;;;6.05;;
40849;SDS011;26571;41.610;25.380;2023-02-13T09:25:59;7.70;;;5.72;;
40849;SDS011;26571;41.610;25.380;2023-02-13T09:30:51;6.32;;;5.53;;
40849;SDS011;26571;41.610;25.380;2023-02-13T09:33:17;7.97;;;6.60;;
40849;SDS011;26571;41.610;25.380;2023-02-13T09:35:42;8.15;;;6.70;;
40849;SDS011;26571;41.610;25.380;2023-02-13T09:38:07;8.13;;;7.28;;
40849;SDS011;26571;41.610;25.380;2023-02-13T09:43:12;5.97;;;5.30;;
40849;SDS011;26571;41.610;25.380;2023-02-13T09:45:42;10.00;;;7.20;;
40849;SDS011;26571;41.610;25.380;2023-02-13T09:48:53;9.60;;;6.90;;
40849;SDS011;26571;41.610;25.380;2023-02-13T09:51:01;8.13;;;5.65;;
40849;SDS011;26571;41.610;25.380;2023-02-13T09:56:09;5.82;;;5.22;;
40849;SDS011;26571;41.610;25.380;2023-02-13T09:58:41;12.13;;;7.10;;
40849;SDS011;26571;41.610;25.380;2023-02-13T10:06:23;7.97;;;7.03;;
40849;SDS011;26571;41.610;25.380;2023-02-13T10:14:34;6.63;;;5.88;;
40849;SDS011;26571;41.610;25.380;2023-02-13T10:17:23;5.95;;;5.15;;
40849;SDS011;26571;41.610;25.380;2023-02-13T10:19:58;8.93;;;6.15;;
40849;SDS011;26571;41.610;25.380;2023-02-13T10:22:30;5.82;;;5.13;;
40849;SDS011;26571;41.610;25.380;2023-02-13T10:27:54;6.65;;;5.07;;
40849;SDS011;26571;41.610;25.380;2023-02-13T10:30:29;6.25;;;5.60;;
40849;SDS011;26571;41.610;25.380;2023-02-13T10:33:02;9.40;;;6.03;;
40849;SDS011;26571;41.610;25.380;2023-02-13T10:36:08;6.60;;;5.30;;
40849;SDS011;26571;41.610;25.380;2023-02-13T10:41:50;6.97;;;5.28;;
40849;SDS011;26571;41.610;25.380;2023-02-13T10:44:21;7.75;;;5.65;;
40849;SDS011;26571;41.610;25.380;2023-02-13T10:58:35;8.80;;;6.43;;
40849;SDS011;26571;41.610;25.380;2023-02-13T11:03:37;27.42;;;16.85;;
40849;SDS011;26571;41.610;25.380;2023-02-13T11:06:04;7.90;;;6.38;;
40849;SDS011;26571;41.610;25.380;2023-02-13T11:08:33;6.45;;;5.35;;
40849;SDS011;26571;41.610;25.380;2023-02-13T11:11:03;7.20;;;5.88;;
40849;SDS011;26571;41.610;25.380;2023-02-13T11:16:42;7.72;;;5.90;;
40849;SDS011;26571;41.610;25.380;2023-02-13T11:22:00;5.82;;;4.75;;
40849;SDS011;26571;41.610;25.380;2023-02-13T11:24:28;6.78;;;5.25;;
40849;SDS011;26571;41.610;25.380;2023-02-13T11:27:02;5.67;;;5.13;;
40849;SDS011;26571;41.610;25.380;2023-02-13T11:29:33;9.70;;;8.35;;
40849;SDS011;26571;41.610;25.380;2023-02-13T11:34:31;5.30;;;4.10;;
40849;SDS011;26571;41.610;25.380;2023-02-13T11:39:42;10.48;;;6.53;;
40849;SDS011;26571;41.610;25.380;2023-02-13T11:42:11;6.68;;;4.65;;
40849;SDS011;26571;41.610;25.380;2023-02-13T11:44:39;6.07;;;5.03;;
40849;SDS011;26571;41.610;25.380;2023-02-13T11:47:06;5.28;;;4.82;;
40849;SDS011;26571;41.610;25.380;2023-02-13T11:49:43;7.25;;;5.30;;
40849;SDS011;26571;41.610;25.380;2023-02-13T11:55:00;6.75;;;6.03;;
40849;SDS011;26571;41.610;25.380;2023-02-13T11:57:54;8.02;;;5.47;;
40849;SDS011;26571;41.610;25.380;2023-02-13T12:00:30;6.50;;;4.90;;
40849;SDS011;26571;41.610;25.380;2023-02-13T12:03:01;10.23;;;7.75;;
40849;SDS011;26571;41.610;25.380;2023-02-13T12:06:01;6.75;;;6.05;;
40849;SDS011;26571;41.610;25.380;2023-02-13T12:08:30;5.38;;;4.40;;
40849;SDS011;26571;41.610;25.380;2023-02-13T12:10:57;4.93;;;4.45;;
40849;SDS011;26571;41.610;25.380;2023-02-13T12:13:42;7.32;;;5.35;;
40849;SDS011;26571;41.610;25.380;2023-02-13T12:18:55;6.63;;;5.43;;
40849;SDS011;26571;41.610;25.380;2023-02-13T12:26:59;5.05;;;4.55;;
40849;SDS011;26571;41.610;25.380;2023-02-13T12:29:54;6.60;;;5.15;;
40849;SDS011;26571;41.610;25.380;2023-02-13T12:41:13;5.28;;;4.43;;
40849;SDS011;26571;41.610;25.380;2023-02-13T12:44:02;4.78;;;4.47;;
40849;SDS011;26571;41.610;25.380;2023-02-13T12:54:42;5.85;;;4.40;;
40849;SDS011;26571;41.610;25.380;2023-02-13T13:05:21;5.85;;;4.00;;
40849;SDS011;26571;41.610;25.380;2023-02-13T13:07:55;6.50;;;4.72;;
40849;SDS011;26571;41.610;25.380;2023-02-13T13:13:06;4.53;;;4.03;;
40849;SDS011;26571;41.610;25.380;2023-02-13T13:16:25;5.18;;;4.05;;
40849;SDS011;26571;41.610;25.380;2023-02-13T13:18:38;13.55;;;9.40;;
40849;SDS011;26571;41.610;25.380;2023-02-13T13:26:47;9.15;;;5.82;;
40849;SDS011;26571;41.610;25.380;2023-02-13T13:29:24;5.38;;;4.85;;
40849;SDS011;26571;41.610;25.380;2023-02-13T13:31:55;5.97;;;5.38;;
40849;SDS011;26571;41.610;25.380;2023-02-13T13:34:25;5.35;;;4.07;;
40849;SDS011;26571;41.610;25.380;2023-02-13T13:42:16;6.15;;;4.13;;
40849;SDS011;26571;41.610;25.380;2023-02-13T13:50:16;5.10;;;4.60;;
40849;SDS011;26571;41.610;25.380;2023-02-13T14:01:29;4.57;;;4.15;;
40849;SDS011;26571;41.610;25.380;2023-02-13T14:06:19;3.90;;;3.30;;
40849;SDS011;26571;41.610;25.380;2023-02-13T14:09:05;4.30;;;3.85;;
40849;SDS011;26571;41.610;25.380;2023-02-13T14:11:51;5.97;;;5.03;;
40849;SDS011;26571;41.610;25.380;2023-02-13T14:16:53;6.07;;;5.30;;
40849;SDS011;26571;41.610;25.380;2023-02-13T14:21:51;5.63;;;4.90;;
40849;SDS011;26571;41.610;25.380;2023-02-13T14:24:18;7.95;;;6.55;;
40849;SDS011;26571;41.610;25.380;2023-02-13T14:26:53;9.23;;;6.97;;
40849;SDS011;26571;41.610;25.380;2023-02-13T14:29:21;7.35;;;5.22;;
40849;SDS011;26571;41.610;25.380;2023-02-13T14:34:30;8.43;;;6.95;;
40849;SDS011;26571;41.610;25.380;2023-02-13T14:37:04;8.90;;;6.75;;
40849;SDS011;26571;41.610;25.380;2023-02-13T14:42:36;5.90;;;5.28;;
40849;SDS011;26571;41.610;25.380;2023-02-13T14:45:03;8.23;;;6.70;;
40849;SDS011;26571;41.610;25.380;2023-02-13T14:47:41;14.13;;;8.75;;
40849;SDS011;26571;41.610;25.380;2023-02-13T14:50:28;14.60;;;8.95;;
40849;SDS011;26571;41.610;25.380;2023-02-13T14:52:57;15.93;;;11.02;;
40849;SDS011;26571;41.610;25.380;2023-02-13T14:55:35;31.58;;;16.27;;
40849;SDS011;26571;41.610;25.380;2023-02-13T14:58:10;23.58;;;13.40;;
40849;SDS011;26571;41.610;25.380;2023-02-13T15:00:42;9.38;;;6.65;;
40849;SDS011;26571;41.610;25.380;2023-02-13T15:05:44;7.82;;;6.13;;
40849;SDS011;26571;41.610;25.380;2023-02-13T15:08:16;7.80;;;6.95;;
40849;SDS011;26571;41.610;25.380;2023-02-13T15:10:47;41.38;;;25.20;;
40849;SDS011;26571;41.610;25.380;2023-02-13T15:13:16;15.05;;;10.75;;
40849;SDS011;26571;41.610;25.380;2023-02-13T15:16:28;24.58;;;15.07;;
40849;SDS011;26571;41.610;25.380;2023-02-13T15:18:41;16.08;;;11.32;;
40849;SDS011;26571;41.610;25.380;2023-02-13T15:21:16;11.35;;;9.95;;
40849;SDS011;26571;41.610;25.380;2023-02-13T15:23:43;10.68;;;9.38;;
40849;SDS011;26571;41.610;25.380;2023-02-13T15:26:18;7.85;;;7.05;;
40849;SDS011;26571;41.610;25.380;2023-02-13T15:28:57;14.80;;;13.40;;
40849;SDS011;26571;41.610;25.380;2023-02-13T15:31:25;23.08;;;13.18;;
40849;SDS011;26571;41.610;25.380;2023-02-13T15:33:57;17.73;;;12.55;;
40849;SDS011;26571;41.610;25.380;2023-02-13T15:36:24;8.18;;;6.95;;
40849;SDS011;26571;41.610;25.380;2023-02-13T15:39:04;16.70;;;11.55;;
40849;SDS011;26571;41.610;25.380;2023-02-13T15:41:36;21.52;;;13.88;;
40849;SDS011;26571;41.610;25.380;2023-02-13T15:44:04;31.13;;;20.17;;
40849;SDS011;26571;41.610;25.380;2023-02-13T15:46:30;27.42;;;19.60;;
40849;SDS011;26571;41.610;25.380;2023-02-13T15:49:06;25.55;;;16.85;;
40849;SDS011;26571;41.610;25.380;2023-02-13T15:51:34;25.73;;;19.02;;
40849;SDS011;26571;41.610;25.380;2023-02-13T15:54:01;30.73;;;19.25;;
40849;SDS011;26571;41.610;25.380;2023-02-13T15:56:27;46.35;;;30.65;;
40849;SDS011;26571;41.610;25.380;2023-02-13T15:58:55;45.70;;;30.73;;
40849;SDS011;26571;41.610;25.380;2023-02-13T16:01:22;27.45;;;19.95;;
40849;SDS011;26571;41.610;25.380;2023-02-13T16:03:49;57.97;;;35.08;;
40849;SDS011;26571;41.610;25.380;2023-02-13T16:06:18;50.42;;;31.83;;
40849;SDS011;26571;41.610;25.380;2023-02-13T16:08:53;46.92;;;30.27;;
40849;SDS011;26571;41.610;25.380;2023-02-13T16:16:47;29.88;;;19.38;;
40849;SDS011;26571;41.610;25.380;2023-02-13T16:19:32;26.73;;;18.58;;
40849;SDS011;26571;41.610;25.380;2023-02-13T16:21:59;24.17;;;17.65;;
40849;SDS011;26571;41.610;25.380;2023-02-13T16:24:28;24.58;;;15.70;;
40849;SDS011;26571;41.610;25.380;2023-02-13T16:26:54;26.05;;;16.80;;
40849;SDS011;26571;41.610;25.380;2023-02-13T16:29:23;23.10;;;16.92;;
40849;SDS011;26571;41.610;25.380;2023-02-13T16:31:51;27.98;;;15.70;;
40849;SDS011;26571;41.610;25.380;2023-02-13T16:34:28;22.38;;;15.52;;
40849;SDS011;26571;41.610;25.380;2023-02-13T16:36:54;21.95;;;15.02;;
40849;SDS011;26571;41.610;25.380;2023-02-13T16:39:31;24.75;;;17.42;;
40849;SDS011;26571;41.610;25.380;2023-02-13T16:41:57;19.98;;;14.30;;
40849;SDS011;26571;41.610;25.380;2023-02-13T16:47:00;20.25;;;15.15;;
40849;SDS011;26571;41.610;25.380;2023-02-13T16:49:27;17.75;;;14.77;;
40849;SDS011;26571;41.610;25.380;2023-02-13T16:54:54;18.38;;;14.20;;
40849;SDS011;26571;41.610;25.380;2023-02-13T16:57:25;20.95;;;14.52;;
40849;SDS011;26571;41.610;25.380;2023-02-13T17:02:51;19.33;;;13.50;;
40849;SDS011;26571;41.610;25.380;2023-02-13T17:05:20;20.77;;;14.68;;
40849;SDS011;26571;41.610;25.380;2023-02-13T17:07:48;21.88;;;15.35;;
40849;SDS011;26571;41.610;25.380;2023-02-13T17:12:52;21.80;;;15.45;;
40849;SDS011;26571;41.610;25.380;2023-02-13T17:15:20;23.83;;;14.07;;
40849;SDS011;26571;41.610;25.380;2023-02-13T17:17:47;21.65;;;17.90;;
40849;SDS011;26571;41.610;25.380;2023-02-13T17:20:18;23.30;;;15.00;;
40849;SDS011;26571;41.610;25.380;2023-02-13T17:22:46;18.90;;;15.23;;
40849;SDS011;26571;41.610;25.380;2023-02-13T17:25:36;21.08;;;13.32;;
40849;SDS011;26571;41.610;25.380;2023-02-13T17:28:05;22.08;;;15.75;;
40849;SDS011;26571;41.610;25.380;2023-02-13T17:30:37;19.27;;;13.73;;
40849;SDS011;26571;41.610;25.380;2023-02-13T17:33:03;17.65;;;13.60;;
40849;SDS011;26571;41.610;25.380;2023-02-13T17:35:39;24.10;;;16.23;;
40849;SDS011;26571;41.610;25.380;2023-02-13T17:38:04;20.77;;;16.38;;
40849;SDS011;26571;41.610;25.380;2023-02-13T17:40:33;30.25;;;20.65;;